Mccrews — WDF6271 — position and weather

sailwx.info

Track history (hours):
 
Tides and Currents Weather Stations Pressure Air Temp Water Temp Dewpoint Dewpoint Depression Visibility Wind Speed Wind Dir Waves Ship Positions

Mccrews

Owner: McAllister Towing & Transportation Company Inc., Staten Island, NY. More information available from US FCC via Universal Licensing System and Coast Guard Vessel Documentation Center.

Last reported at 2017-Nov-19 08:52 UTC. Time now 2017-Nov-19 10:15 UTC.
Position N 39°53' W 075°11'.

Length 13 m; draft 2 m.

Type: Pilot. MMSI: 367472490.

Date/timePositionNaut miles runAvg speedWind from/ knotsBaromVisibWave heightAir tempDewpointWater temp
2017-Nov-19 08:52N 39°53' W 075°11'3 8.2
2017-Nov-19 08:30N 39°52' W 075°14'3 0.8
2017-Nov-19 05:02N 39°53' W 075°11'0 0.3
2017-Nov-19 05:01N 39°53' W 075°11'3 5.6
2017-Nov-19 04:30N 39°51' W 075°14'0 0.1
2017-Nov-19 04:00N 39°52' W 075°14'2 5.0
2017-Nov-19 03:30N 39°53' W 075°11'0 0.0
2017-Nov-18 00:14N 39°53' W 075°11'2 7.2
2017-Nov-18 00:00N 39°52' W 075°13'0 0.2
2017-Nov-17 23:31N 39°52' W 075°13'2 0.4
2017-Nov-17 19:59N 39°53' W 075°11'3 6.5
2017-Nov-17 19:30N 39°55' W 075°08'2 4.0
2017-Nov-17 19:00N 39°54' W 075°08'4 7.9
2017-Nov-17 18:30N 39°52' W 075°13'2 0.1
2017-Nov-16 16:09N 39°53' W 075°11'0 0.0
2017-Nov-16 15:42N 39°53' W 075°11'0 0.6
2017-Nov-16 15:31N 39°53' W 075°11'1 2.0
2017-Nov-16 15:00N 39°53' W 075°09'2 3.0
2017-Nov-16 14:30N 39°54' W 075°08'2 3.5
2017-Nov-16 14:00N 39°56' W 075°08'1 1.7
2017-Nov-16 13:30N 39°57' W 075°08'2 4.9
2017-Nov-16 13:00N 39°54' W 075°08'3 0.1
2017-Nov-15 18:56N 39°53' W 075°11'2 5.8
2017-Nov-15 18:31N 39°52' W 075°14'0 0.8
2017-Nov-15 18:00N 39°52' W 075°14'0 0.0
2017-Nov-15 17:09N 39°52' W 075°14'0 0.0
2017-Nov-15 17:00N 39°52' W 075°14'1 2.0
2017-Nov-15 16:31N 39°52' W 075°13'4 8.9
2017-Nov-15 16:00N 39°54' W 075°08'3 5.1
2017-Nov-15 15:30N 39°53' W 075°11'0 0.0
2017-Nov-14 23:07N 39°53' W 075°11'0 3.8
2017-Nov-14 23:00N 39°53' W 075°10'2 3.6
2017-Nov-14 22:30N 39°54' W 075°08'2 1.3
2017-Nov-14 20:51N 39°53' W 075°11'0 0.1
2017-Nov-14 20:30N 39°53' W 075°11'0 0.1
2017-Nov-14 20:00N 39°53' W 075°11'0 0.0
2017-Nov-14 19:30N 39°53' W 075°11'0 0.0
2017-Nov-14 19:00N 39°53' W 075°11'0 0.0
2017-Nov-14 17:44N 39°53' W 075°11'2 7.5
2017-Nov-14 17:31N 39°53' W 075°09'2 1.1
2017-Nov-14 15:57N 39°53' W 075°11'0 0.9
2017-Nov-14 15:31N 39°53' W 075°11'0 0.6
2017-Nov-14 14:52N 39°53' W 075°11'3 7.0
2017-Nov-14 14:30N 39°54' W 075°08'2 5.0
2017-Nov-14 14:00N 39°53' W 075°11'0 0.1
2017-Nov-14 09:23N 39°53' W 075°11'1 1.9
2017-Nov-14 09:01N 39°53' W 075°12'2 4.3
2017-Nov-14 08:31N 39°52' W 075°14'2 4.6
2017-Nov-14 08:00N 39°53' W 075°11'1 0.1
2017-Nov-13 22:00N 39°53' W 075°11'0 0.0
2017-Nov-13 00:05N 39°53' W 075°11'0 1.1
2017-Nov-13 00:00N 39°53' W 075°11'1 3.0
2017-Nov-12 23:31N 39°52' W 075°13'  
2017-Nov-09 20:22N 39°53' W 075°11'0 0.0
2017-Nov-09 19:23N 39°53' W 075°11'3 7.7
2017-Nov-09 19:00N 39°52' W 075°14'611.4
2017-Nov-09 18:31N 39°50' W 075°21'611.5
2017-Nov-09 18:01N 39°47' W 075°27'510.8
2017-Nov-09 17:31N 39°42' W 075°31'2 4.8
2017-Nov-09 17:00N 39°40' W 075°32'612.3
2017-Nov-09 16:30N 39°34' W 075°33'1 2.3
2017-Nov-09 16:00N 39°33' W 075°33'0 0.1
2017-Nov-09 15:30N 39°33' W 075°33'0 0.1
2017-Nov-09 15:00N 39°33' W 075°33'0 0.0
2017-Nov-09 14:31N 39°33' W 075°33'815.2
2017-Nov-09 14:01N 39°40' W 075°32'816.7
2017-Nov-09 13:30N 39°47' W 075°27'816.8
2017-Nov-09 13:00N 39°51' W 075°17'510.1
2017-Nov-09 12:30N 39°53' W 075°11'0 0.0
2017-Nov-09 12:01N 39°53' W 075°11'  
Track history (hours):
 
Tides and Currents Weather Stations Pressure Air Temp Water Temp Dewpoint Dewpoint Depression Visibility Wind Speed Wind Dir Waves Ship Positions

Mccrews

Owner: McAllister Towing & Transportation Company Inc., Staten Island, NY. More information available from US FCC via Universal Licensing System and Coast Guard Vessel Documentation Center.

Last reported at 2017-Nov-19 08:52 UTC. Time now 2017-Nov-19 10:15 UTC.
Position N 39°53' W 075°11'.

Length 13 m; draft 2 m.

Type: Pilot. MMSI: 367472490.

Date/timePositionNaut miles runAvg speedWind from/ knotsBaromVisibWave heightAir tempDewpointWater temp
2017-Nov-19 08:52N 39°53' W 075°11'3 8.2
2017-Nov-19 08:30N 39°52' W 075°14'3 0.8
2017-Nov-19 05:02N 39°53' W 075°11'0 0.3
2017-Nov-19 05:01N 39°53' W 075°11'3 5.6
2017-Nov-19 04:30N 39°51' W 075°14'0 0.1
2017-Nov-19 04:00N 39°52' W 075°14'2 5.0
2017-Nov-19 03:30N 39°53' W 075°11'0 0.0
2017-Nov-18 00:14N 39°53' W 075°11'2 7.2
2017-Nov-18 00:00N 39°52' W 075°13'0 0.2
2017-Nov-17 23:31N 39°52' W 075°13'2 0.4
2017-Nov-17 19:59N 39°53' W 075°11'3 6.5
2017-Nov-17 19:30N 39°55' W 075°08'2 4.0
2017-Nov-17 19:00N 39°54' W 075°08'4 7.9
2017-Nov-17 18:30N 39°52' W 075°13'2 0.1
2017-Nov-16 16:09N 39°53' W 075°11'0 0.0
2017-Nov-16 15:42N 39°53' W 075°11'0 0.6
2017-Nov-16 15:31N 39°53' W 075°11'1 2.0
2017-Nov-16 15:00N 39°53' W 075°09'2 3.0
2017-Nov-16 14:30N 39°54' W 075°08'2 3.5
2017-Nov-16 14:00N 39°56' W 075°08'1 1.7
2017-Nov-16 13:30N 39°57' W 075°08'2 4.9
2017-Nov-16 13:00N 39°54' W 075°08'3 0.1
2017-Nov-15 18:56N 39°53' W 075°11'2 5.8
2017-Nov-15 18:31N 39°52' W 075°14'0 0.8
2017-Nov-15 18:00N 39°52' W 075°14'0 0.0
2017-Nov-15 17:09N 39°52' W 075°14'0 0.0
2017-Nov-15 17:00N 39°52' W 075°14'1 2.0
2017-Nov-15 16:31N 39°52' W 075°13'4 8.9
2017-Nov-15 16:00N 39°54' W 075°08'3 5.1
2017-Nov-15 15:30N 39°53' W 075°11'0 0.0
2017-Nov-14 23:07N 39°53' W 075°11'0 3.8
2017-Nov-14 23:00N 39°53' W 075°10'2 3.6
2017-Nov-14 22:30N 39°54' W 075°08'2 1.3
2017-Nov-14 20:51N 39°53' W 075°11'0 0.1
2017-Nov-14 20:30N 39°53' W 075°11'0 0.1
2017-Nov-14 20:00N 39°53' W 075°11'0 0.0
2017-Nov-14 19:30N 39°53' W 075°11'0 0.0
2017-Nov-14 19:00N 39°53' W 075°11'0 0.0
2017-Nov-14 17:44N 39°53' W 075°11'2 7.5
2017-Nov-14 17:31N 39°53' W 075°09'2 1.1
2017-Nov-14 15:57N 39°53' W 075°11'0 0.9
2017-Nov-14 15:31N 39°53' W 075°11'0 0.6
2017-Nov-14 14:52N 39°53' W 075°11'3 7.0
2017-Nov-14 14:30N 39°54' W 075°08'2 5.0
2017-Nov-14 14:00N 39°53' W 075°11'0 0.1
2017-Nov-14 09:23N 39°53' W 075°11'1 1.9
2017-Nov-14 09:01N 39°53' W 075°12'2 4.3
2017-Nov-14 08:31N 39°52' W 075°14'2 4.6
2017-Nov-14 08:00N 39°53' W 075°11'1 0.1
2017-Nov-13 22:00N 39°53' W 075°11'0 0.0
2017-Nov-13 00:05N 39°53' W 075°11'0 1.1
2017-Nov-13 00:00N 39°53' W 075°11'1 3.0
2017-Nov-12 23:31N 39°52' W 075°13'  
2017-Nov-09 20:22N 39°53' W 075°11'0 0.0
2017-Nov-09 19:23N 39°53' W 075°11'3 7.7
2017-Nov-09 19:00N 39°52' W 075°14'611.4
2017-Nov-09 18:31N 39°50' W 075°21'611.5
2017-Nov-09 18:01N 39°47' W 075°27'510.8
2017-Nov-09 17:31N 39°42' W 075°31'2 4.8
2017-Nov-09 17:00N 39°40' W 075°32'612.3
2017-Nov-09 16:30N 39°34' W 075°33'1 2.3
2017-Nov-09 16:00N 39°33' W 075°33'0 0.1
2017-Nov-09 15:30N 39°33' W 075°33'0 0.1
2017-Nov-09 15:00N 39°33' W 075°33'0 0.0
2017-Nov-09 14:31N 39°33' W 075°33'815.2
2017-Nov-09 14:01N 39°40' W 075°32'816.7
2017-Nov-09 13:30N 39°47' W 075°27'816.8
2017-Nov-09 13:00N 39°51' W 075°17'510.1
2017-Nov-09 12:30N 39°53' W 075°11'0 0.0
2017-Nov-09 12:01N 39°53' W 075°11'  

Dump ship's entire track history